E55 weather

Ocean Ridge Airport
Gualala, California, United States

Public forecast

Using degrees Fahrenheit for public forecast. Weather courtesy of forecast.io.

METAR (pilot weather report)

Closest report is Ukiah Municipal Airport, 24.8 nm (46.0 km) NE. Retrieved 2019/08/25 10:56 UTC (21 minutes ago):

KUKI 251056Z AUTO 00000KT 10SM CLR 17/11 A2998 RMK AO2 SLP142 T01670111

TAF (pilot weather forecast)

Closest forecast is Ukiah Municipal Airport, 24.8 nm (46.0 km) NE. Retrieved 2019/08/25 06:36 UTC (5 hours ago):

TAF KUKI 250533Z 2506/2606 00000KT P6SM SKC FM252100 13007KT P6SM SKC FM260000 23009KT P6SM SKC